Time;durP1;ratioP1;P1;durP2;ratioP2;P2;SDS_P1;SDS_P2;PMS_P1;PMS_P2;Temp;Humidity;BMP_temperature;BMP_pressure;BME280_temperature;BME280_humidity;BME280_pressure;Samples;Min_cycle;Max_cycle;Signal;HPM_P1;HPM_P2
2022/01/22 00:02:19;;;;;;;7.50;2.60;;;;;;;-2.85;75.58;97856.21;104961;1271;72618;-24
2022/01/22 00:04:48;;;;;;;4.70;2.20;;;;;;;-2.90;75.93;97845.60;105087;1271;61121;-22
2022/01/22 00:07:17;;;;;;;3.40;2.30;;;;;;;-3.00;76.67;97856.89;105105;1271;61093;-23
2022/01/22 00:09:58;;;;;;;4.50;2.40;;;;;;;-3.18;77.59;97864.34;105252;1271;74799;-24
2022/01/22 00:15:06;;;;;;;4.00;2.10;;;;;;;-2.97;76.96;97875.98;105228;1271;73010;-25
2022/01/22 00:17:35;;;;;;;6.40;2.70;;;;;;;-2.73;76.05;97856.54;104791;1271;61169;-22
2022/01/22 00:20:04;;;;;;;3.30;2.00;;;;;;;-2.73;75.81;97858.77;105299;1271;61858;-22
2022/01/22 00:22:35;;;;;;;5.30;3.30;;;;;;;-2.89;76.14;97868.47;104809;1274;74925;-25
2022/01/22 00:25:08;;;;;;;4.00;2.10;;;;;;;-3.24;77.13;97858.66;104902;1271;75055;-23
2022/01/22 00:27:40;;;;;;;;;;;;;;;-3.27;77.56;97865.55;105148;1271;74518;-22
2022/01/22 00:30:11;;;;;;;3.80;2.00;;;;;;;-3.31;78.03;97868.97;105047;1271;62550;-23
2022/01/22 00:32:40;;;;;;;6.10;2.50;;;;;;;-2.72;76.36;97879.78;105188;1271;61762;-24
2022/01/22 00:35:10;;;;;;;6.00;2.70;;;;;;;-2.64;75.50;97879.42;105272;1271;75491;-24
2022/01/22 00:37:40;;;;;;;4.20;2.60;;;;;;;-2.85;75.82;97875.25;104904;1271;74693;-24
2022/01/22 00:40:10;;;;;;;5.70;2.40;;;;;;;-2.99;76.11;97871.12;104668;1271;73599;-24
2022/01/22 00:42:44;;;;;;;3.60;2.00;;;;;;;-3.24;77.27;97874.59;104863;1270;61183;-24
2022/01/22 00:45:13;;;;;;;2.70;1.60;;;;;;;-3.38;77.66;97881.84;104990;1271;61015;-24
2022/01/22 00:47:41;;;;;;;3.20;1.70;;;;;;;-3.34;77.66;97876.92;105287;1271;75441;-24
2022/01/22 00:50:12;;;;;;;8.70;2.00;;;;;;;-2.91;76.09;97873.15;105022;1271;75161;-24
2022/01/22 00:52:41;;;;;;;7.20;2.30;;;;;;;-2.80;75.07;97869.94;104797;1271;74434;-24
2022/01/22 00:55:10;;;;;;;2.60;1.60;;;;;;;-2.84;75.08;97871.98;104714;1271;61041;-24
2022/01/22 00:57:39;;;;;;;3.70;1.90;;;;;;;-2.98;75.16;97864.63;104782;1271;61668;-24
2022/01/22 01:00:10;;;;;;;3.00;1.60;;;;;;;-3.25;76.16;97862.75;104950;1270;74422;-24
2022/01/22 01:02:39;;;;;;;5.40;2.10;;;;;;;-3.34;76.86;97858.73;104721;1271;76057;-24
2022/01/22 01:05:09;;;;;;;3.60;2.20;;;;;;;-3.44;77.65;97848.99;104924;1271;71655;-22
2022/01/22 01:07:38;;;;;;;2.80;1.90;;;;;;;-2.99;76.05;97862.30;104904;1271;61257;-23
2022/01/22 01:10:08;;;;;;;2.80;1.50;;;;;;;-2.89;75.69;97863.55;104900;1271;61053;-24
2022/01/22 01:12:39;;;;;;;6.50;2.30;;;;;;;-3.11;76.82;97858.23;104833;1271;73962;-23
2022/01/22 01:18:06;;;;;;;6.20;2.00;;;;;;;-3.35;78.31;97862.00;104665;1271;74803;-23
2022/01/22 01:34:32;;;;;;;2.10;1.90;;;;;;;-3.39;78.88;97871.00;105066;1271;61161;-23
2022/01/22 01:37:01;;;;;;;4.00;2.20;;;;;;;-3.39;78.96;97875.94;104856;1271;61786;-23
2022/01/22 01:39:33;;;;;;;3.50;2.40;;;;;;;-2.91;77.01;97881.98;104945;1271;73937;-23
2022/01/22 01:42:06;;;;;;;3.30;2.20;;;;;;;-2.89;76.14;97877.81;104833;1271;74993;-23
2022/01/22 01:44:35;;;;;;;5.50;2.00;;;;;;;-3.02;76.38;97881.27;104902;1271;72585;-23
2022/01/22 01:47:14;;;;;;;5.60;2.70;;;;;;;-3.21;76.83;97880.27;105000;1271;61160;-23
2022/01/22 01:49:44;;;;;;;3.30;1.90;;;;;;;-3.30;77.27;97887.91;104734;1271;62004;-24
2022/01/22 01:52:34;;;;;;;5.40;2.40;;;;;;;-3.38;77.36;97882.31;104933;1271;74543;-23
2022/01/22 01:55:19;;;;;;;3.90;2.00;;;;;;;-3.07;76.36;97882.36;105105;1271;72231;-23
2022/01/22 01:57:48;;;;;;;3.00;1.70;;;;;;;-2.81;75.23;97881.88;104961;1271;72551;-23
2022/01/22 02:00:23;;;;;;;6.30;2.00;;;;;;;-2.76;74.37;97878.41;104966;1271;61093;-23
2022/01/22 02:02:58;;;;;;;4.30;2.10;;;;;;;-2.98;74.80;97876.52;105120;1271;61084;-24
2022/01/22 02:05:34;;;;;;;8.30;2.10;;;;;;;-3.19;75.35;97881.67;104997;1271;74525;-23
2022/01/22 02:08:03;;;;;;;3.50;1.70;;;;;;;-3.26;75.80;97880.80;104836;1274;73665;-23
2022/01/22 02:10:44;;;;;;;4.00;2.00;;;;;;;-3.37;76.26;97879.92;104847;1271;74535;-23
2022/01/22 02:23:32;;;;;;;8.10;1.90;;;;;;;-2.89;73.81;97876.46;104687;1274;74070;-24
2022/01/22 02:24:47;;;;;;;2.30;1.40;;;;;;;-3.27;75.47;97884.23;105120;1271;74394;-22
2022/01/22 02:27:17;;;;;;;3.60;2.00;;;;;;;-3.35;75.65;97882.23;105104;1271;61106;-23
2022/01/22 02:29:46;;;;;;;4.60;1.60;;;;;;;-3.40;76.42;97884.81;105106;1271;61041;-22
2022/01/22 02:33:04;;;;;;;3.70;2.20;;;;;;;-3.19;76.29;97887.46;104713;1271;74485;-23
2022/01/22 02:35:59;;;;;;;5.80;2.20;;;;;;;-2.87;75.82;97874.84;104780;1271;72978;-25
2022/01/22 02:38:39;;;;;;;2.90;2.00;;;;;;;-3.01;77.07;97882.77;104832;1271;74472;-24
2022/01/22 02:41:13;;;;;;;2.40;1.50;;;;;;;-3.30;79.60;97891.66;104636;1274;61154;-24
2022/01/22 02:43:42;;;;;;;3.50;2.60;;;;;;;-3.42;80.02;97883.67;104841;1271;62207;-23
2022/01/22 02:46:13;;;;;;;6.50;2.30;;;;;;;-3.63;81.18;97876.77;104932;1271;75735;-25
2022/01/22 02:48:43;;;;;;;7.50;3.00;;;;;;;-3.35;80.22;97886.78;104802;1274;74800;-24
2022/01/22 02:51:11;;;;;;;4.10;2.30;;;;;;;-3.22;79.10;97884.88;104724;1274;74386;-24
2022/01/22 02:53:41;;;;;;;6.50;2.80;;;;;;;-3.05;77.79;97883.98;105038;1271;61070;-22
2022/01/22 02:56:10;;;;;;;5.00;3.00;;;;;;;-3.38;78.72;97887.60;105161;1271;61019;-22
2022/01/22 02:58:39;;;;;;;6.50;2.30;;;;;;;-3.44;79.11;97889.02;105135;1272;75654;-23
2022/01/22 03:01:08;;;;;;;5.20;2.60;;;;;;;-3.55;79.55;97887.98;105080;1271;75998;-22
2022/01/22 03:03:39;;;;;;;5.30;2.70;;;;;;;-3.46;79.07;97869.95;104941;1271;74460;-22
2022/01/22 03:06:09;;;;;;;4.80;2.60;;;;;;;-3.18;77.41;97882.50;105041;1271;61103;-23
2022/01/22 03:08:39;;;;;;;5.70;2.80;;;;;;;-3.13;77.18;97889.05;105080;1272;62509;-23
2022/01/22 03:11:18;;;;;;;5.70;2.20;;;;;;;-3.32;77.60;97880.58;105100;1271;74248;-23
2022/01/22 03:14:24;;;;;;;8.30;3.00;;;;;;;-3.43;77.97;97873.05;105145;1271;73918;-23
2022/01/22 03:17:11;;;;;;;3.60;2.00;;;;;;;-3.71;79.05;97879.51;105050;1271;74900;-22
2022/01/22 03:22:19;;;;;;;6.40;2.60;;;;;;;-3.08;76.16;97887.17;105017;1271;61300;-23
2022/01/22 03:27:35;;;;;;;4.80;3.10;;;;;;;-3.34;76.71;97896.91;105107;1271;76248;-22
2022/01/22 03:30:05;;;;;;;7.10;3.20;;;;;;;-3.46;77.50;97905.93;105141;1274;73573;-23
2022/01/22 03:32:42;;;;;;;4.40;2.90;;;;;;;-3.58;78.22;97891.33;104756;1271;61250;-22
2022/01/22 03:35:25;;;;;;;5.20;3.00;;;;;;;-3.57;79.11;97892.48;104825;1271;61763;-22
2022/01/22 03:37:56;;;;;;;5.30;2.80;;;;;;;-3.29;77.98;97887.05;105004;1271;72951;-24
2022/01/22 03:40:28;;;;;;;6.80;2.40;;;;;;;-3.13;77.22;97895.01;104857;1274;75822;-24
2022/01/22 03:42:57;;;;;;;3.50;2.40;;;;;;;-3.15;77.29;97903.11;104796;1271;73498;-24
2022/01/22 03:45:25;;;;;;;2.10;1.40;;;;;;;-3.45;78.57;97901.98;104803;1274;61111;-24
2022/01/22 03:47:55;;;;;;;3.60;2.00;;;;;;;-3.54;79.06;97907.45;104979;1271;61211;-24
2022/01/22 03:50:23;;;;;;;5.20;2.60;;;;;;;-3.62;79.39;97907.14;105006;1272;74471;-24
2022/01/22 03:52:52;;;;;;;5.10;2.90;;;;;;;-3.35;78.62;97901.04;104820;1271;75962;-25
2022/01/22 03:55:37;;;;;;;5.30;2.70;;;;;;;-3.08;77.34;97904.15;104987;1271;73386;-22
2022/01/22 03:58:18;;;;;;;6.60;2.70;;;;;;;-3.08;76.97;97907.53;105056;1271;61179;-24
2022/01/22 04:00:56;;;;;;;4.90;1.90;;;;;;;-3.30;77.70;97904.73;104782;1271;61103;-24
2022/01/22 04:03:33;;;;;;;8.40;3.50;;;;;;;-3.37;77.46;97896.38;104850;1271;75509;-25
2022/01/22 04:08:33;;;;;;;7.30;2.30;;;;;;;-3.59;78.87;97906.14;105110;1271;72755;-22
2022/01/22 04:11:02;;;;;;;2.70;1.50;;;;;;;-3.08;76.66;97904.11;104964;1271;61771;-22
2022/01/22 04:13:35;;;;;;;4.10;2.10;;;;;;;-2.87;75.17;97906.61;104996;1271;61239;-23
2022/01/22 04:16:05;;;;;;;6.90;2.80;;;;;;;-3.07;75.24;97895.94;105144;1271;75530;-23
2022/01/22 04:27:09;;;;;;;3.30;1.70;;;;;;;-3.31;77.48;97898.33;105117;1271;61001;-23
2022/01/22 04:29:38;;;;;;;5.40;2.50;;;;;;;-2.96;75.67;97891.52;105017;1271;74450;-23
2022/01/22 04:32:07;;;;;;;2.60;1.80;;;;;;;-3.21;75.52;97890.95;105102;1271;75120;-23
2022/01/22 04:34:36;;;;;;;4.70;1.90;;;;;;;-3.29;76.05;97899.77;104871;1274;74407;-23
2022/01/22 04:37:05;;;;;;;5.40;2.50;;;;;;;-3.34;76.32;97888.61;104878;1272;61182;-23
2022/01/22 04:39:36;;;;;;;3.90;2.20;;;;;;;-3.58;77.00;97883.52;104928;1271;61127;-23
2022/01/22 04:42:07;;;;;;;3.60;1.90;;;;;;;-3.70;77.63;97893.88;105055;1271;75279;-23
2022/01/22 04:44:43;;;;;;;2.80;1.50;;;;;;;-3.25;76.41;97900.14;104836;1271;76200;-22
2022/01/22 04:52:41;;;;;;;3.60;1.70;;;;;;;-3.54;78.35;97889.64;105061;1271;62083;-23
2022/01/22 04:55:10;;;;;;;3.60;1.80;;;;;;;-3.66;78.25;97894.04;104856;1271;74125;-23
2022/01/22 04:57:43;;;;;;;4.70;1.70;;;;;;;-3.78;78.06;97895.87;104727;1271;74861;-23
2022/01/22 05:00:14;;;;;;;2.10;1.60;;;;;;;-3.73;77.87;97887.02;104758;1272;74626;-23
2022/01/22 05:03:07;;;;;;;3.40;1.60;;;;;;;-3.20;75.58;97890.04;104824;1271;61022;-23
2022/01/22 05:06:10;;;;;;;8.40;3.00;;;;;;;-3.29;75.66;97882.83;104896;1271;61136;-23
2022/01/22 05:08:58;;;;;;;3.00;1.90;;;;;;;-3.44;75.91;97888.22;105289;1271;73664;-23
2022/01/22 05:11:36;;;;;;;4.90;2.40;;;;;;;-3.70;77.11;97884.70;105180;1271;76015;-23
2022/01/22 05:14:04;;;;;;;7.60;3.30;;;;;;;-3.78;77.28;97878.40;104935;1271;73076;-23
2022/01/22 05:16:33;;;;;;;4.10;1.70;;;;;;;-3.83;77.40;97889.52;104924;1271;61516;-23
2022/01/22 05:19:10;;;;;;;4.80;2.30;;;;;;;-3.38;76.27;97904.08;104921;1271;61089;-22
2022/01/22 05:21:40;;;;;;;3.30;2.20;;;;;;;-3.13;74.58;97897.23;104804;1274;75658;-22
2022/01/22 05:24:13;;;;;;;9.10;2.60;;;;;;;-3.25;74.71;97887.02;104877;1272;75961;-22
2022/01/22 05:37:54;;;;;;;4.50;2.20;;;;;;;-3.39;76.07;97889.15;105056;1271;76525;-24
2022/01/22 05:40:24;;;;;;;2.60;1.80;;;;;;;-3.15;74.54;97900.71;104983;1271;73477;-24
2022/01/22 05:42:54;;;;;;;4.50;2.10;;;;;;;-3.19;74.33;97898.66;105077;1272;61078;-25
2022/01/22 05:45:26;;;;;;;4.40;1.70;;;;;;;-3.35;74.77;97899.88;105266;1271;61175;-25
2022/01/22 05:47:55;;;;;;;5.60;2.10;;;;;;;-3.56;75.69;97896.67;105229;1271;74530;-22
2022/01/22 05:50:33;;;;;;;3.10;1.80;;;;;;;-3.74;76.07;97904.55;105106;1271;76035;-23
2022/01/22 05:53:16;;;;;;;2.10;1.40;;;;;;;-3.82;76.18;97909.13;105117;1271;74499;-23
2022/01/22 06:01:34;;;;;;;2.30;1.20;;;;;;;-3.18;73.39;97915.12;105169;1272;74847;-23
2022/01/22 06:04:18;;;;;;;5.20;1.30;;;;;;;-3.36;73.99;97911.47;105300;1271;74993;-24
2022/01/22 06:06:48;;;;;;;1.50;1.20;;;;;;;-3.52;74.21;97906.70;105213;1271;74794;-23
2022/01/22 06:09:16;;;;;;;5.60;2.40;;;;;;;-3.69;74.97;97913.52;104856;1272;61103;-23
2022/01/22 06:11:58;;;;;;;2.60;1.40;;;;;;;-3.79;75.49;97917.29;104929;1271;61099;-23
2022/01/22 06:14:35;;;;;;;6.60;2.30;;;;;;;-3.42;74.75;97919.52;104766;1271;75531;-23
2022/01/22 06:17:03;;;;;;;3.10;1.70;;;;;;;-3.01;72.84;97925.20;105080;1271;75148;-24
2022/01/22 06:19:38;;;;;;;4.80;2.20;;;;;;;-2.96;72.15;97919.05;105212;1270;74440;-24
2022/01/22 06:22:06;;;;;;;2.80;1.30;;;;;;;-3.09;72.69;97926.11;104861;1272;61132;-23
2022/01/22 06:24:36;;;;;;;4.20;2.30;;;;;;;-3.28;73.47;97928.60;104929;1271;61126;-23
2022/01/22 06:27:07;;;;;;;8.00;2.20;;;;;;;-3.53;74.19;97925.21;104797;1270;74312;-24
2022/01/22 06:29:35;;;;;;;4.50;1.90;;;;;;;-3.61;74.45;97921.15;104827;1272;75967;-23
2022/01/22 06:32:05;;;;;;;2.60;1.80;;;;;;;-3.82;74.77;97912.34;104970;1271;74370;-23
2022/01/22 06:34:36;;;;;;;2.50;1.20;;;;;;;-3.77;75.90;97915.55;104795;1272;62621;-23
2022/01/22 06:37:04;;;;;;;1.60;1.20;;;;;;;-3.27;73.88;97918.02;104971;1271;63129;-23
2022/01/22 06:43:01;;;;;;;2.00;1.40;;;;;;;-3.29;74.09;97927.09;104942;1271;75507;-24
2022/01/22 06:45:41;;;;;;;3.10;1.60;;;;;;;-3.42;74.51;97924.45;104955;1271;75028;-24
2022/01/22 06:48:11;;;;;;;2.30;1.90;;;;;;;-3.67;75.55;97924.61;104958;1271;61040;-24
2022/01/22 06:50:59;;;;;;;3.50;1.40;;;;;;;-3.80;76.26;97928.35;105274;1271;60995;-23
2022/01/22 06:53:27;;;;;;;3.90;1.40;;;;;;;-3.77;76.24;97928.76;105091;1271;75545;-23
2022/01/22 06:56:02;;;;;;;3.30;2.10;;;;;;;-3.30;74.69;97924.25;105087;1271;74367;-24
2022/01/22 06:58:43;;;;;;;4.20;2.10;;;;;;;-3.12;73.63;97916.85;105173;1272;73478;-23
2022/01/22 07:01:11;;;;;;;2.40;1.30;;;;;;;-3.19;73.76;97928.88;105270;1271;61259;-22
2022/01/22 07:03:45;;;;;;;4.40;2.00;;;;;;;-3.40;74.09;97920.42;105282;1271;62672;-23
2022/01/22 07:06:34;;;;;;;4.60;1.70;;;;;;;-3.55;74.96;97921.05;104907;1271;75308;-24
2022/01/22 07:09:05;;;;;;;1.60;1.40;;;;;;;-3.72;75.98;97931.91;104977;1271;73646;-22
2022/01/22 07:11:35;;;;;;;3.00;1.20;;;;;;;-3.76;77.12;97935.48;104961;1271;72866;-22
2022/01/22 07:14:03;;;;;;;2.90;1.90;;;;;;;-3.32;75.76;97932.64;104791;1271;61113;-22
2022/01/22 07:16:32;;;;;;;3.60;1.60;;;;;;;-2.99;74.21;97937.20;105247;1270;62174;-22
2022/01/22 07:19:18;;;;;;;3.80;1.30;;;;;;;-3.14;73.76;97936.31;105127;1271;75554;-23
2022/01/22 07:22:01;;;;;;;6.20;2.50;;;;;;;-3.36;74.41;97932.30;105298;1271;76148;-22
2022/01/22 07:24:37;;;;;;;3.40;1.70;;;;;;;-3.47;74.98;97935.00;104980;1271;72630;-24
2022/01/22 07:27:06;;;;;;;3.70;1.80;;;;;;;-3.59;75.26;97934.98;104918;1270;61127;-23
2022/01/22 07:29:36;;;;;;;2.80;1.80;;;;;;;-3.74;76.07;97938.98;104995;1271;61097;-22
2022/01/22 07:32:11;;;;;;;4.50;1.80;;;;;;;-3.53;76.12;97945.09;105133;1271;75564;-22
2022/01/22 07:34:40;;;;;;;2.10;1.60;;;;;;;-2.92;73.99;97949.81;104882;1271;74981;-24
2022/01/22 07:37:18;;;;;;;4.50;2.00;;;;;;;-2.95;73.15;97939.23;105076;1271;73341;-23
2022/01/22 07:39:46;;;;;;;2.80;1.50;;;;;;;-3.28;74.05;97940.13;104958;1271;61141;-24
2022/01/22 07:42:39;;;;;;;4.50;2.00;;;;;;;-3.44;74.43;97938.11;104969;1271;61084;-24
2022/01/22 07:45:28;;;;;;;6.50;2.90;;;;;;;-3.49;75.20;97952.06;105274;1271;74334;-25
2022/01/22 07:48:07;;;;;;;3.60;1.40;;;;;;;-3.64;75.76;97955.89;105276;1271;76017;-23
2022/01/22 07:50:59;;;;;;;5.20;2.20;;;;;;;-3.40;75.00;97953.86;105291;1271;73355;-22
2022/01/22 07:53:28;;;;;;;5.50;1.90;;;;;;;-3.08;73.05;97931.30;105355;1271;60995;-22
2022/01/22 07:55:57;;;;;;;5.90;2.20;;;;;;;-2.93;72.83;97961.91;105268;1271;61792;-22
2022/01/22 07:58:25;;;;;;;8.30;2.70;;;;;;;-3.03;73.48;97960.46;105194;1271;74549;-25
2022/01/22 08:00:54;;;;;;;9.70;1.80;;;;;;;-3.24;74.39;97954.89;105012;1271;75510;-24
2022/01/22 08:03:26;;;;;;;3.60;1.80;;;;;;;-3.40;75.31;97963.88;104872;1271;74225;-25
2022/01/22 08:06:13;;;;;;;5.30;2.70;;;;;;;-3.65;76.29;97958.12;104769;1271;61278;-22
2022/01/22 08:09:00;;;;;;;4.20;2.10;;;;;;;-3.54;76.28;97962.77;104933;1271;61015;-25
2022/01/22 08:11:48;;;;;;;3.30;1.60;;;;;;;-3.13;74.72;97970.92;104891;1271;75635;-24
2022/01/22 08:14:16;;;;;;;3.00;1.90;;;;;;;-3.10;74.32;97962.28;104821;1271;75963;-24
2022/01/22 08:16:56;;;;;;;3.30;2.00;;;;;;;-3.25;75.08;97971.60;105061;1272;74324;-22
2022/01/22 08:19:29;;;;;;;5.20;1.80;;;;;;;-3.37;75.88;97972.93;104863;1274;313359;-24
2022/01/22 08:21:58;;;;;;;5.20;2.30;;;;;;;-3.53;76.55;97966.98;104776;1271;61480;-24
2022/01/22 08:24:45;;;;;;;1.80;1.10;;;;;;;-3.61;77.55;97971.52;105067;1271;73845;-22
2022/01/22 08:27:42;;;;;;;2.80;1.20;;;;;;;-3.23;76.08;97975.73;105031;1271;76234;-22
2022/01/22 08:30:04;;;;;;;4.50;2.10;;;;;;;-3.09;74.97;97977.85;105002;1271;73308;-23
2022/01/22 08:32:58;;;;;;;7.50;2.80;;;;;;;-3.16;75.11;97976.14;104626;1274;61143;-24
2022/01/22 08:38:11;;;;;;;5.80;2.00;;;;;;;-3.58;76.98;97983.30;104986;1271;74608;-23
2022/01/22 08:40:39;;;;;;;2.90;2.00;;;;;;;-3.59;77.89;97982.99;104950;1271;75055;-22
2022/01/22 08:43:08;;;;;;;5.30;2.50;;;;;;;-3.42;77.61;97982.80;104838;1271;74421;-22
2022/01/22 08:45:36;;;;;;;5.40;2.10;;;;;;;-2.98;75.69;97989.98;104819;1274;61340;-23
2022/01/22 08:48:06;;;;;;;5.00;2.70;;;;;;;-2.76;74.37;97983.94;104841;1272;61029;-23
2022/01/22 08:50:36;;;;;;;5.20;2.50;;;;;;;-3.01;75.27;97994.50;105151;1271;74100;-23
2022/01/22 08:53:05;;;;;;;7.60;2.70;;;;;;;-3.17;76.71;98000.28;104859;1271;76102;-23
2022/01/22 08:55:33;;;;;;;4.70;1.70;;;;;;;-3.31;78.18;98012.56;104828;1272;74017;-23
2022/01/22 08:58:02;;;;;;;3.10;2.00;;;;;;;-3.36;78.63;98014.14;104790;1274;61162;-22
2022/01/22 09:00:39;;;;;;;6.70;3.50;;;;;;;-3.25;78.57;98008.58;104905;1271;61009;-22
2022/01/22 09:03:19;;;;;;;10.40;3.20;;;;;;;-2.99;77.13;98013.80;105096;1271;75272;-25
2022/01/22 09:06:07;;;;;;;8.00;2.80;;;;;;;-2.90;76.92;98013.89;104799;1272;76161;-25
2022/01/22 09:09:03;;;;;;;7.50;3.00;;;;;;;-3.05;77.27;98011.13;105066;1271;74381;-24
2022/01/22 09:11:54;;;;;;;3.70;1.90;;;;;;;-3.15;77.70;98011.41;105122;1271;61148;-23
2022/01/22 09:14:42;;;;;;;6.90;3.60;;;;;;;-3.30;78.39;98011.69;105171;1271;61031;-23
2022/01/22 09:17:20;;;;;;;2.90;1.80;;;;;;;-3.54;79.94;98013.02;104987;1271;74558;-23
2022/01/22 09:19:58;;;;;;;6.50;2.10;;;;;;;-2.89;77.97;98009.61;104957;1271;75003;-23
2022/01/22 09:22:26;;;;;;;6.00;3.40;;;;;;;-2.88;77.09;98008.39;104899;1271;72810;-23
2022/01/22 09:24:55;;;;;;;4.60;2.70;;;;;;;-2.96;76.93;98005.19;105162;1271;61147;-23
2022/01/22 09:27:24;;;;;;;6.30;3.00;;;;;;;-3.07;77.38;98009.36;104799;1274;61195;-23
2022/01/22 09:29:53;;;;;;;6.70;3.50;;;;;;;-3.26;78.42;98002.52;105013;1271;74545;-23
2022/01/22 09:32:21;;;;;;;4.70;2.40;;;;;;;-3.54;79.48;98004.14;105106;1271;76268;-23
2022/01/22 09:35:00;;;;;;;8.60;2.50;;;;;;;-3.56;79.98;98007.48;105197;1271;74407;-22
2022/01/22 09:37:48;;;;;;;3.30;2.30;;;;;;;-3.08;78.11;98014.16;105133;1271;61128;-22
2022/01/22 09:40:28;;;;;;;3.70;2.70;;;;;;;-2.78;76.09;98007.30;105127;1272;61222;-23
2022/01/22 09:43:15;;;;;;;5.90;2.80;;;;;;;-2.99;76.86;98022.09;105165;1271;74521;-22
2022/01/22 09:46:05;;;;;;;4.10;2.70;;;;;;;-3.09;77.33;98012.88;104939;1271;75846;-22
2022/01/22 09:49:00;;;;;;;7.30;3.40;;;;;;;-3.18;77.84;98026.64;104644;1271;73483;-23
2022/01/22 09:52:03;;;;;;;4.80;2.30;;;;;;;-3.43;78.84;98023.44;104908;1271;61037;-22
2022/01/22 09:54:51;;;;;;;3.90;2.60;;;;;;;-3.36;78.89;98020.75;104847;1271;61121;-22
2022/01/22 09:57:38;;;;;;;7.20;2.70;;;;;;;-2.84;76.68;98024.52;105119;1271;74853;-22
2022/01/22 10:00:45;;;;;;;5.20;2.90;;;;;;;-2.91;76.70;98035.37;104448;1277;75095;-23
2022/01/22 10:03:22;;;;;;;5.30;2.80;;;;;;;-2.94;76.78;98024.61;104599;1277;74343;-23
2022/01/22 10:06:31;;;;;;;7.40;3.10;;;;;;;-3.13;78.07;98037.81;104877;1271;61036;-22
2022/01/22 10:09:26;;;;;;;7.70;3.40;;;;;;;-3.28;78.79;98037.42;105087;1271;61080;-22
2022/01/22 10:12:21;;;;;;;5.40;3.00;;;;;;;-3.31;78.74;98031.75;105112;1271;75670;-23
2022/01/22 10:15:21;;;;;;;2.60;1.80;;;;;;;-2.98;77.57;98042.44;105129;1271;74809;-22
2022/01/22 10:17:54;;;;;;;7.90;2.90;;;;;;;-2.69;76.34;98040.88;104890;1274;73473;-22
2022/01/22 10:20:32;;;;;;;6.20;3.90;;;;;;;-2.72;76.33;98045.27;104811;1271;61778;-22
2022/01/22 10:23:08;;;;;;;8.20;4.00;;;;;;;-3.24;78.30;98042.67;105135;1271;61050;-22
2022/01/22 10:25:44;;;;;;;4.60;3.00;;;;;;;-3.19;78.33;98036.68;104959;1271;75628;-23
2022/01/22 10:28:19;;;;;;;5.90;3.10;;;;;;;-3.22;77.89;98051.27;104699;1271;75364;-24
2022/01/22 10:30:55;;;;;;;6.70;3.30;;;;;;;-3.30;78.11;98043.10;104820;1274;72855;-24
2022/01/22 10:33:35;;;;;;;5.70;3.00;;;;;;;-2.80;77.19;98048.33;104879;1272;61175;-23
2022/01/22 10:36:23;;;;;;;5.60;3.20;;;;;;;-2.60;76.78;98054.25;104897;1271;61035;-23
2022/01/22 10:39:22;;;;;;;5.90;3.50;;;;;;;-2.74;77.46;98041.95;104877;1271;75415;-24
2022/01/22 10:41:50;;;;;;;9.60;3.80;;;;;;;-2.83;77.97;98046.23;104777;1271;76040;-24
2022/01/22 10:44:35;;;;;;;3.40;2.20;;;;;;;-2.90;78.09;98038.70;104876;1271;73347;-24
2022/01/22 10:47:04;;;;;;;5.30;2.80;;;;;;;-3.10;79.40;98047.88;105091;1271;61085;-23
2022/01/22 10:49:33;;;;;;;4.60;2.60;;;;;;;-3.12;79.25;98035.54;104963;1274;61028;-23
2022/01/22 10:52:04;;;;;;;2.70;1.80;;;;;;;-3.07;79.82;98045.55;105114;1271;73886;-22
2022/01/22 10:54:34;;;;;;;4.40;2.40;;;;;;;-2.74;78.78;98074.20;104863;1271;72971;-23
2022/01/22 10:57:10;;;;;;;6.40;2.10;;;;;;;-2.92;78.34;98079.72;105061;1271;72975;-23
2022/01/22 10:59:52;;;;;;;4.80;2.00;;;;;;;-3.04;78.79;98087.52;105027;1271;61186;-25
2022/01/22 11:02:38;;;;;;;6.10;1.60;;;;;;;-3.16;78.30;98092.77;104964;1271;61810;-24
2022/01/22 11:05:07;;;;;;;10.10;2.80;;;;;;;-3.19;77.63;98096.29;104949;1274;75546;-23
2022/01/22 11:07:35;;;;;;;5.20;1.90;;;;;;;-3.21;77.30;98101.98;104921;1271;74746;-23
2022/01/22 11:10:07;;;;;;;5.30;2.50;;;;;;;-2.95;75.79;98102.42;104816;1272;73355;-24
2022/01/22 11:12:36;;;;;;;3.50;2.00;;;;;;;-2.91;75.43;98105.36;104964;1271;61146;-25
2022/01/22 11:15:06;;;;;;;2.40;1.30;;;;;;;-3.13;74.97;98104.72;104901;1271;61509;-25
2022/01/22 11:17:34;;;;;;;1.90;1.00;;;;;;;-3.17;74.40;98111.67;104914;1271;74701;-23
2022/01/22 11:20:04;;;;;;;5.00;1.70;;;;;;;-3.14;74.17;98117.48;104736;1274;75837;-23
2022/01/22 11:22:32;;;;;;;4.10;1.70;;;;;;;-3.11;72.82;98122.30;104806;1271;71163;-23
2022/01/22 11:25:01;;;;;;;2.40;1.30;;;;;;;-3.33;72.19;98119.42;105029;1271;61074;-23
2022/01/22 11:27:32;;;;;;;3.30;1.50;;;;;;;-3.44;72.35;98126.13;105174;1271;61079;-23
2022/01/22 11:30:05;;;;;;;2.70;1.50;;;;;;;-3.25;71.99;98127.96;105119;1271;75609;-23
2022/01/22 11:32:41;;;;;;;2.70;1.60;;;;;;;-3.13;70.80;98130.88;104855;1271;76477;-23
2022/01/22 11:35:09;;;;;;;1.90;1.20;;;;;;;-3.21;69.92;98133.73;104874;1272;74634;-24
2022/01/22 11:37:49;;;;;;;2.70;1.50;;;;;;;-3.12;68.90;98131.33;105204;1271;61116;-24
2022/01/22 11:40:19;;;;;;;1.80;1.00;;;;;;;-3.12;66.93;98135.93;104805;1271;61136;-23
2022/01/22 11:43:00;;;;;;;2.50;1.30;;;;;;;-3.13;66.20;98137.48;104920;1271;74249;-23
2022/01/22 11:45:36;;;;;;;4.00;1.50;;;;;;;-3.18;66.04;98144.83;104684;1271;75466;-23
2022/01/22 11:48:18;;;;;;;1.80;1.40;;;;;;;-3.37;66.08;98150.45;104805;1271;73010;-23
2022/01/22 11:50:48;;;;;;;2.70;1.20;;;;;;;-3.35;66.40;98156.52;104794;1271;61196;-23
2022/01/22 11:53:25;;;;;;;5.20;2.10;;;;;;;-3.20;66.82;98169.52;104799;1271;61044;-23
2022/01/22 11:56:09;;;;;;;5.10;1.40;;;;;;;-3.33;65.45;98166.45;104687;1274;75633;-23
2022/01/22 11:58:56;;;;;;;;;;;;;;;-3.46;65.07;98165.91;105017;1271;75912;-23
2022/01/22 12:01:52;;;;;;;1.80;1.00;;;;;;;-3.52;65.50;98164.45;104811;1271;73277;-23
2022/01/22 12:04:22;;;;;;;2.00;1.20;;;;;;;-3.52;64.90;98170.04;104810;1271;61200;-24
2022/01/22 12:07:01;;;;;;;1.30;0.90;;;;;;;-3.50;64.89;98180.50;105112;1272;61323;-23
2022/01/22 12:09:32;;;;;;;1.90;0.80;;;;;;;-3.56;64.75;98186.33;104868;1271;74683;-23
2022/01/22 12:15:15;;;;;;;1.50;0.70;;;;;;;-3.48;65.60;98197.37;105166;1272;74391;-23
2022/01/22 12:17:59;;;;;;;1.80;1.10;;;;;;;-3.44;65.61;98196.08;104948;1271;61559;-23
2022/01/22 12:23:31;;;;;;;2.70;1.10;;;;;;;-3.47;65.15;98201.27;104986;1274;72860;-23
2022/01/22 12:26:02;;;;;;;2.40;1.50;;;;;;;-3.45;66.64;98203.89;105069;1271;75742;-23
2022/01/22 12:28:39;;;;;;;2.50;1.20;;;;;;;-3.40;65.86;98210.34;104999;1271;74661;-21
2022/01/22 12:31:10;;;;;;;3.10;1.20;;;;;;;-3.39;66.52;98213.69;104798;1272;61125;-24
2022/01/22 12:33:52;;;;;;;1.70;1.30;;;;;;;-3.37;66.18;98219.75;104722;1271;61456;-23
2022/01/22 12:36:26;;;;;;;2.80;1.60;;;;;;;-3.44;66.24;98222.53;105055;1271;75501;-23
2022/01/22 12:39:10;;;;;;;;;;;;;;;-3.42;66.33;98222.80;104812;1272;75994;-22
2022/01/22 12:44:19;;;;;;;3.40;1.20;;;;;;;-3.38;67.01;98231.66;104945;1271;61115;-24
2022/01/22 12:46:52;;;;;;;3.10;1.50;;;;;;;-3.47;66.48;98229.77;105069;1271;61966;-22
2022/01/22 12:49:21;;;;;;;2.70;1.60;;;;;;;-3.67;66.76;98233.25;104753;1272;75724;-23
2022/01/22 12:51:54;;;;;;;2.50;1.30;;;;;;;-3.68;67.27;98247.20;104784;1271;76013;-23
2022/01/22 12:54:30;;;;;;;3.30;1.50;;;;;;;-3.46;66.78;98247.21;104978;1271;73587;-23
2022/01/22 12:57:11;;;;;;;4.20;1.50;;;;;;;-3.46;66.33;98251.45;104975;1272;61948;-23
2022/01/22 12:59:54;;;;;;;2.70;1.50;;;;;;;-3.41;66.14;98252.79;104695;1271;61055;-23
2022/01/22 13:02:37;;;;;;;2.40;1.30;;;;;;;-3.49;66.32;98255.96;105126;1271;74697;-23
2022/01/22 13:05:07;;;;;;;2.40;1.30;;;;;;;-3.45;66.43;98257.52;105125;1271;76265;-23
2022/01/22 13:07:55;;;;;;;3.50;1.80;;;;;;;-3.32;66.60;98263.70;104984;1271;72215;-23
2022/01/22 13:10:44;;;;;;;1.50;1.10;;;;;;;-3.39;66.62;98269.36;105059;1271;61028;-23
2022/01/22 13:13:17;;;;;;;4.40;2.20;;;;;;;-3.38;66.37;98279.00;105090;1271;62040;-23
2022/01/22 13:15:45;;;;;;;3.10;1.40;;;;;;;-3.27;66.13;98282.32;105069;1271;73654;-23
2022/01/22 13:18:44;;;;;;;5.20;2.30;;;;;;;-3.25;65.58;98292.45;104986;1271;75885;-23
2022/01/22 13:21:13;;;;;;;2.90;1.60;;;;;;;-3.29;65.44;98288.54;105130;1271;71983;-23
2022/01/22 13:23:42;;;;;;;1.30;1.10;;;;;;;-3.37;64.93;98295.42;104840;1272;62145;-23
2022/01/22 13:26:10;;;;;;;3.40;1.90;;;;;;;-3.37;64.73;98300.02;104930;1271;61050;-24
2022/01/22 13:28:40;;;;;;;2.60;1.80;;;;;;;-3.28;64.82;98303.42;105051;1271;75496;-23